createdAt,value
2022-10-09T00:01:26.511Z,79.68
2022-10-09T00:03:56.544Z,79.22
2022-10-09T00:06:28.929Z,79.14
2022-10-09T00:08:56.894Z,79.42
2022-10-09T00:11:26.265Z,79.15
2022-10-09T00:13:55.334Z,79.18
2022-10-09T00:16:23.432Z,79.68
2022-10-09T00:18:52.084Z,79.75
2022-10-09T00:21:21.301Z,79.61
2022-10-09T00:23:49.814Z,79.77
2022-10-09T00:26:17.566Z,79.29
2022-10-09T00:28:45.629Z,78.90
2022-10-09T00:31:13.931Z,79.31
2022-10-09T00:33:59.528Z,79.60
2022-10-09T00:36:27.528Z,79.88
2022-10-09T00:38:55.493Z,80.38
2022-10-09T00:41:26.946Z,81.61
2022-10-09T00:43:57.781Z,83.12
2022-10-09T00:46:34.648Z,83.67
2022-10-09T00:49:08.173Z,83.62
2022-10-09T00:51:35.746Z,83.75
2022-10-09T00:54:07.113Z,84.56
2022-10-09T00:56:37.666Z,85.74
2022-10-09T00:59:05.930Z,85.91
2022-10-09T01:01:33.282Z,85.82
2022-10-09T01:04:00.750Z,86.26
2022-10-09T01:06:57.463Z,86.24
2022-10-09T01:09:37.888Z,86.15
2022-10-09T01:12:22.161Z,85.18
2022-10-09T01:15:33.943Z,85.86
2022-10-09T01:18:23.368Z,83.69
2022-10-09T01:21:19.861Z,83.82
2022-10-09T01:24:02.277Z,85.02
2022-10-09T01:26:57.067Z,84.83
2022-10-09T01:29:28.550Z,85.20
2022-10-09T01:31:58.550Z,85.20
2022-10-09T01:34:27.673Z,84.81
2022-10-09T01:36:57.534Z,85.60
2022-10-09T01:39:26.825Z,86.19
2022-10-09T01:41:55.516Z,86.20
2022-10-09T01:44:26.148Z,86.26
2022-10-09T01:46:54.880Z,86.31
2022-10-09T01:49:43.239Z,84.53
2022-10-09T01:52:22.795Z,83.86
2022-10-09T01:55:02.389Z,83.98
2022-10-09T01:57:40.656Z,84.96
2022-10-09T02:00:11.030Z,85.51
2022-10-09T02:02:43.615Z,85.61
2022-10-09T02:05:15.250Z,85.54
2022-10-09T02:07:43.330Z,85.69
2022-10-09T02:10:11.062Z,86.74
2022-10-09T02:12:43.939Z,86.51
2022-10-09T02:15:12.193Z,86.94
2022-10-09T02:17:45.486Z,87.46
2022-10-09T02:20:22.634Z,85.80
2022-10-09T02:22:50.518Z,83.77
2022-10-09T02:25:18.733Z,84.42
2022-10-09T02:27:47.218Z,83.50
2022-10-09T02:30:16.364Z,84.67
2022-10-09T02:32:43.886Z,85.61
2022-10-09T02:35:11.357Z,86.00
2022-10-09T02:37:38.760Z,85.76
2022-10-09T02:40:10.548Z,85.12
2022-10-09T02:42:38.158Z,85.83
2022-10-09T02:45:06.116Z,85.67
2022-10-09T02:47:33.603Z,85.66
2022-10-09T02:50:01.023Z,86.96
2022-10-09T02:52:28.475Z,87.46
2022-10-09T02:54:55.835Z,88.61
2022-10-09T02:57:23.226Z,89.04
2022-10-09T02:59:50.516Z,89.20
2022-10-09T03:02:18.012Z,89.06
2022-10-09T03:04:45.472Z,86.27
2022-10-09T03:07:12.793Z,86.59
2022-10-09T03:09:40.203Z,86.75
2022-10-09T03:12:07.536Z,86.53
2022-10-09T03:14:35.186Z,85.48
2022-10-09T03:17:02.481Z,85.48
2022-10-09T03:19:29.844Z,85.95
2022-10-09T03:21:57.127Z,84.46
2022-10-09T03:24:24.705Z,83.89
2022-10-09T03:26:52.030Z,83.55
2022-10-09T03:29:19.510Z,83.33
2022-10-09T03:31:52.510Z,84.02
2022-10-09T03:34:20.573Z,84.13
2022-10-09T03:36:47.951Z,83.43
2022-10-09T03:39:15.306Z,83.27
2022-10-09T03:41:42.721Z,84.34
2022-10-09T03:44:10.041Z,83.66
2022-10-09T03:46:37.478Z,83.29
2022-10-09T03:49:04.940Z,84.18
2022-10-09T03:51:33.677Z,83.65
2022-10-09T03:54:01.030Z,84.11
2022-10-09T03:56:28.394Z,84.33
2022-10-09T03:58:55.749Z,85.19
2022-10-09T04:01:23.362Z,86.32
2022-10-09T04:03:50.947Z,87.04
2022-10-09T04:06:18.289Z,87.32
2022-10-09T04:08:45.619Z,87.75
2022-10-09T04:11:12.908Z,88.58
2022-10-09T04:13:43.324Z,88.36
2022-10-09T04:16:12.878Z,88.64
2022-10-09T04:18:42.036Z,88.33
2022-10-09T04:21:09.445Z,88.96
2022-10-09T04:23:36.742Z,89.40
2022-10-09T04:26:04.124Z,90.20
2022-10-09T04:28:31.882Z,90.43
2022-10-09T04:30:59.573Z,90.17
2022-10-09T04:33:27.521Z,89.90
2022-10-09T04:35:55.929Z,90.46
2022-10-09T04:38:24.778Z,90.21
2022-10-09T04:40:57.853Z,90.72
2022-10-09T04:43:26.361Z,90.60
2022-10-09T04:45:54.011Z,91.21
2022-10-09T04:48:21.537Z,91.58
2022-10-09T04:50:48.869Z,91.68
2022-10-09T04:53:16.339Z,92.70
2022-10-09T04:55:44.504Z,92.52
2022-10-09T04:58:15.241Z,93.28
2022-10-09T05:00:45.240Z,93.46
2022-10-09T05:03:12.925Z,93.50
2022-10-09T05:05:40.277Z,93.49
2022-10-09T05:08:07.696Z,93.50
2022-10-09T05:10:35.052Z,93.62
2022-10-09T05:13:02.413Z,94.20
2022-10-09T05:15:29.842Z,94.15
2022-10-09T05:17:57.172Z,95.23
2022-10-09T05:20:24.507Z,95.90
2022-10-09T05:22:52.408Z,96.23
2022-10-09T05:25:20.004Z,96.31
2022-10-09T05:27:50.592Z,96.36
2022-10-09T05:30:17.999Z,96.89
2022-10-09T05:32:45.290Z,97.82
2022-10-09T05:35:12.647Z,98.55
2022-10-09T05:37:40.003Z,97.39
2022-10-09T05:40:08.162Z,98.14
2022-10-09T05:42:35.441Z,97.99
2022-10-09T05:45:03.026Z,96.49
2022-10-09T05:47:31.158Z,97.11
2022-10-09T05:49:58.571Z,96.16
2022-10-09T05:52:25.887Z,97.40
2022-10-09T05:54:53.241Z,97.27
2022-10-09T05:57:20.619Z,98.07
2022-10-09T05:59:47.894Z,97.46
2022-10-09T06:02:15.231Z,97.15
2022-10-09T06:04:44.355Z,96.72
2022-10-09T06:07:11.718Z,96.92
2022-10-09T06:09:39.507Z,97.22
2022-10-09T06:12:06.854Z,96.69
2022-10-09T06:14:34.143Z,97.05
2022-10-09T06:17:01.750Z,96.45
2022-10-09T06:19:29.185Z,96.32
2022-10-09T06:21:56.516Z,96.00
2022-10-09T06:24:28.769Z,95.60
2022-10-09T06:26:59.734Z,96.06
2022-10-09T06:29:28.073Z,96.73
2022-10-09T06:31:55.389Z,96.77
2022-10-09T06:34:22.895Z,96.97
2022-10-09T06:36:50.280Z,96.69
2022-10-09T06:39:17.885Z,97.87
2022-10-09T06:41:45.299Z,97.08
2022-10-09T06:44:29.526Z,96.91
2022-10-09T06:46:56.860Z,97.33
2022-10-09T06:49:24.280Z,97.18
2022-10-09T06:51:51.610Z,97.67
2022-10-09T06:54:19.024Z,98.07
2022-10-09T06:56:46.427Z,97.00
2022-10-09T06:59:13.882Z,97.28
2022-10-09T07:01:41.329Z,97.40
2022-10-09T07:04:14.363Z,96.62
2022-10-09T07:06:44.425Z,96.09
2022-10-09T07:09:13.883Z,94.75
2022-10-09T07:11:44.349Z,94.73
2022-10-09T07:14:13.664Z,92.31
2022-10-09T07:16:44.071Z,90.81
2022-10-09T07:19:15.543Z,90.51
2022-10-09T07:21:44.705Z,88.96
2022-10-09T07:24:13.127Z,88.78
2022-10-09T07:26:42.920Z,88.78
2022-10-09T07:29:12.572Z,87.09
2022-10-09T07:31:39.887Z,86.27
2022-10-09T07:34:07.734Z,84.53
2022-10-09T07:36:35.464Z,84.61
2022-10-09T07:39:04.968Z,84.68
2022-10-09T07:41:32.396Z,84.33
2022-10-09T07:43:59.837Z,83.67
2022-10-09T07:46:32.989Z,83.40
2022-10-09T07:49:01.987Z,81.86
2022-10-09T07:51:30.856Z,80.72
2022-10-09T07:54:00.050Z,80.90
2022-10-09T07:56:32.474Z,79.36
2022-10-09T07:59:02.545Z,78.54
2022-10-09T08:01:31.684Z,77.59
2022-10-09T08:04:00.115Z,75.93
2022-10-09T08:06:28.418Z,74.19
2022-10-09T08:08:57.763Z,70.40
2022-10-09T08:11:27.046Z,71.62
2022-10-09T08:13:54.743Z,71.65
2022-10-09T08:16:23.736Z,66.68
2022-10-09T08:18:58.055Z,65.04
2022-10-09T08:21:27.853Z,60.84
2022-10-09T08:23:57.601Z,58.72
2022-10-09T08:26:27.176Z,58.78
2022-10-09T08:29:05.190Z,58.02
2022-10-09T08:31:32.721Z,57.80
2022-10-09T08:34:02.032Z,56.80
2022-10-09T08:36:30.053Z,57.12
2022-10-09T08:38:58.266Z,54.72
2022-10-09T08:41:39.740Z,51.92
2022-10-09T08:44:10.981Z,49.50
2022-10-09T08:46:53.683Z,48.45
2022-10-09T08:49:36.751Z,45.28
2022-10-09T08:52:16.956Z,43.98
2022-10-09T08:54:44.467Z,45.03
2022-10-09T08:57:15.844Z,45.24
2022-10-09T08:59:44.300Z,44.93
2022-10-09T09:02:47.914Z,45.60
2022-10-09T09:05:37.570Z,42.64
2022-10-09T09:08:23.545Z,41.72
2022-10-09T09:11:23.621Z,41.81
2022-10-09T09:14:30.090Z,41.87
2022-10-09T09:17:19.233Z,41.86
2022-10-09T09:19:55.142Z,41.08
2022-10-09T09:22:24.658Z,41.89
2022-10-09T09:24:54.870Z,42.42
2022-10-09T09:27:31.859Z,42.52
2022-10-09T09:30:04.348Z,42.70
2022-10-09T09:32:33.279Z,43.18
2022-10-09T09:35:19.399Z,42.51
2022-10-09T09:37:47.180Z,44.31
2022-10-09T09:40:36.067Z,44.40
2022-10-09T09:43:14.940Z,45.79
2022-10-09T09:45:43.968Z,48.24
2022-10-09T09:48:16.695Z,49.31
2022-10-09T09:50:56.475Z,47.88
2022-10-09T09:53:34.432Z,46.82
2022-10-09T09:56:02.108Z,46.81
2022-10-09T09:58:50.434Z,46.80
2022-10-09T10:01:24.750Z,46.47
2022-10-09T10:03:55.120Z,46.57
2022-10-09T10:06:28.930Z,47.99
2022-10-09T10:08:58.998Z,48.67
2022-10-09T10:11:26.749Z,50.04
2022-10-09T10:13:54.255Z,50.50
2022-10-09T10:16:24.936Z,50.58
2022-10-09T10:18:57.523Z,50.93
2022-10-09T10:21:24.887Z,51.46
2022-10-09T10:24:10.732Z,50.59
2022-10-09T10:26:44.140Z,50.42
2022-10-09T10:29:17.593Z,51.49
2022-10-09T10:31:52.815Z,52.75
2022-10-09T10:34:28.165Z,52.80
2022-10-09T10:37:13.706Z,52.46
2022-10-09T10:39:50.203Z,52.65
2022-10-09T10:42:57.436Z,52.57
2022-10-09T10:45:35.645Z,54.13
2022-10-09T10:48:04.504Z,52.03
2022-10-09T10:50:38.982Z,53.14
2022-10-09T10:53:37.939Z,54.05
2022-10-09T10:56:35.653Z,54.16
2022-10-09T10:59:21.822Z,54.71
2022-10-09T11:02:00.946Z,55.29
2022-10-09T11:05:06.881Z,55.80
2022-10-09T11:07:56.584Z,56.39
2022-10-09T11:10:26.486Z,56.41
2022-10-09T11:13:19.667Z,56.19
2022-10-09T11:16:10.509Z,56.80
2022-10-09T11:19:06.069Z,55.68
2022-10-09T11:21:52.018Z,55.17
2022-10-09T11:24:43.922Z,53.88
2022-10-09T11:27:28.775Z,53.24
2022-10-09T11:30:02.297Z,52.33
2022-10-09T11:32:36.731Z,51.94
2022-10-09T11:35:04.359Z,53.41
2022-10-09T11:37:36.256Z,52.77
2022-10-09T11:40:13.289Z,52.12
2022-10-09T11:42:40.903Z,50.95
2022-10-09T11:45:46.793Z,51.28
2022-10-09T11:48:33.039Z,51.12
2022-10-09T11:51:16.137Z,49.98
2022-10-09T11:53:48.008Z,49.44
2022-10-09T11:56:22.784Z,49.74
2022-10-09T11:59:07.177Z,49.57
2022-10-09T12:01:40.416Z,49.42
2022-10-09T12:04:32.320Z,49.53
2022-10-09T12:07:12.558Z,50.88
2022-10-09T12:09:48.474Z,52.48
2022-10-09T12:12:15.736Z,52.86
2022-10-09T12:14:45.823Z,52.97
2022-10-09T12:17:22.134Z,51.89
2022-10-09T12:20:04.877Z,50.69
2022-10-09T12:22:36.675Z,49.59
2022-10-09T12:25:27.457Z,49.29
2022-10-09T12:27:57.591Z,49.15
2022-10-09T12:30:33.503Z,49.69
2022-10-09T12:33:26.443Z,49.06
2022-10-09T12:36:06.453Z,49.39
2022-10-09T12:38:33.753Z,49.72
2022-10-09T12:41:10.663Z,48.36
2022-10-09T12:43:44.493Z,48.30
2022-10-09T12:46:11.894Z,48.36
2022-10-09T12:48:43.558Z,47.13
2022-10-09T12:51:23.080Z,47.60
2022-10-09T12:53:51.949Z,47.27
2022-10-09T12:56:31.437Z,47.22
2022-10-09T12:59:01.390Z,46.94
2022-10-09T13:01:29.606Z,47.70
2022-10-09T13:04:00.220Z,48.07
2022-10-09T13:06:43.972Z,46.28
2022-10-09T13:09:35.573Z,47.15
2022-10-09T13:12:21.887Z,47.87
2022-10-09T13:14:56.379Z,45.83
2022-10-09T13:20:16.804Z,45.65
2022-10-09T13:23:26.764Z,46.56
2022-10-09T13:25:54.294Z,46.38
2022-10-09T13:28:21.788Z,46.53
2022-10-09T13:30:49.375Z,46.53
2022-10-09T13:33:17.363Z,46.78
2022-10-09T13:35:44.903Z,48.04
2022-10-09T13:38:17.372Z,48.60
2022-10-09T13:40:45.001Z,47.43
2022-10-09T13:43:22.497Z,47.62
2022-10-09T13:45:49.834Z,47.26
2022-10-09T13:48:18.243Z,47.86
2022-10-09T13:50:46.104Z,47.08
2022-10-09T13:53:13.442Z,47.58
2022-10-09T13:55:40.730Z,48.24
2022-10-09T13:58:08.059Z,48.18
2022-10-09T14:00:37.153Z,49.07
2022-10-09T14:03:05.039Z,49.52
2022-10-09T14:05:32.327Z,49.40
2022-10-09T14:07:59.638Z,49.44
2022-10-09T14:10:27.080Z,49.49
2022-10-09T14:12:54.447Z,48.97
2022-10-09T14:15:21.967Z,47.83
2022-10-09T14:17:49.499Z,47.70
2022-10-09T14:20:17.170Z,47.70
2022-10-09T14:22:44.537Z,48.14
2022-10-09T14:25:11.811Z,48.69
2022-10-09T14:27:41.564Z,48.91
2022-10-09T14:30:11.647Z,49.06
2022-10-09T14:32:38.977Z,48.89
2022-10-09T14:35:06.863Z,49.81
2022-10-09T14:37:41.566Z,49.61
2022-10-09T14:40:11.064Z,49.97
2022-10-09T14:42:39.235Z,49.91
2022-10-09T14:45:07.761Z,50.49
2022-10-09T14:47:35.519Z,50.68
2022-10-09T14:50:02.839Z,50.40
2022-10-09T14:52:30.461Z,51.05
2022-10-09T14:54:57.791Z,51.53
2022-10-09T14:57:25.115Z,52.09
2022-10-09T14:59:53.056Z,51.87
2022-10-09T15:02:20.554Z,51.57
2022-10-09T15:04:47.854Z,51.69
2022-10-09T15:07:15.165Z,51.71
2022-10-09T15:09:42.535Z,51.51
2022-10-09T15:12:09.802Z,51.73
2022-10-09T15:14:37.233Z,51.71
2022-10-09T15:17:04.490Z,51.30
2022-10-09T15:19:31.914Z,50.99
2022-10-09T15:21:59.278Z,51.30
2022-10-09T15:24:26.605Z,51.41
2022-10-09T15:26:53.913Z,51.56
2022-10-09T15:29:21.221Z,51.94
2022-10-09T15:31:51.262Z,52.16
2022-10-09T15:34:19.944Z,52.38
2022-10-09T15:36:47.274Z,52.78
2022-10-09T15:39:17.253Z,52.77
2022-10-09T15:41:44.703Z,52.70
2022-10-09T15:44:17.816Z,53.11
2022-10-09T15:46:46.209Z,53.55
2022-10-09T15:49:13.767Z,52.50
2022-10-09T15:51:41.207Z,52.08
2022-10-09T15:54:08.657Z,51.84
2022-10-09T15:56:39.720Z,51.69
2022-10-09T15:59:10.418Z,52.57
2022-10-09T16:01:37.816Z,52.69
2022-10-09T16:04:05.147Z,53.28
2022-10-09T16:06:32.452Z,52.86
2022-10-09T16:09:00.903Z,53.14
2022-10-09T16:11:28.295Z,53.88
2022-10-09T16:13:56.065Z,53.91
2022-10-09T16:16:25.874Z,54.55
2022-10-09T16:18:54.192Z,54.93
2022-10-09T16:21:24.320Z,55.21
2022-10-09T16:23:57.303Z,55.60
2022-10-09T16:26:28.158Z,55.88
2022-10-09T16:28:55.605Z,56.24
2022-10-09T16:31:26.171Z,56.31
2022-10-09T16:33:53.876Z,56.64
2022-10-09T16:36:24.367Z,56.95
2022-10-09T16:38:51.734Z,57.38
2022-10-09T16:41:20.898Z,57.47
2022-10-09T16:43:53.499Z,57.54
2022-10-09T16:46:22.619Z,58.09
2022-10-09T16:48:51.615Z,58.35
2022-10-09T16:51:24.307Z,59.03
2022-10-09T16:53:53.641Z,59.16
2022-10-09T16:56:24.213Z,59.31
2022-10-09T16:58:55.632Z,60.38
2022-10-09T17:01:23.741Z,60.85
2022-10-09T17:03:53.028Z,61.29
2022-10-09T17:06:23.420Z,61.40
2022-10-09T17:08:52.123Z,61.53
2022-10-09T17:11:22.066Z,61.86
2022-10-09T17:13:49.564Z,61.92
2022-10-09T17:16:19.823Z,62.60
2022-10-09T17:18:48.288Z,62.64
2022-10-09T17:21:17.553Z,62.78
2022-10-09T17:23:45.752Z,63.42
2022-10-09T17:26:15.998Z,63.67
2022-10-09T17:28:44.377Z,63.80
2022-10-09T17:31:16.914Z,64.05
2022-10-09T17:33:46.276Z,63.99
2022-10-09T17:36:18.535Z,64.13
2022-10-09T17:38:49.847Z,64.06
2022-10-09T17:41:24.388Z,64.09
2022-10-09T17:43:53.364Z,64.44
2022-10-09T17:46:22.155Z,64.47
2022-10-09T17:48:53.511Z,65.22
2022-10-09T17:51:25.416Z,65.89
2022-10-09T17:53:54.280Z,65.43
2022-10-09T17:56:22.653Z,65.60
2022-10-09T17:58:50.252Z,65.69
2022-10-09T18:01:18.306Z,66.86
2022-10-09T18:03:45.966Z,67.49
2022-10-09T18:06:16.334Z,68.04
2022-10-09T18:08:44.570Z,67.24
2022-10-09T18:11:17.108Z,67.86
2022-10-09T18:13:45.392Z,67.10
2022-10-09T18:16:18.016Z,66.95
2022-10-09T18:18:46.492Z,66.71
2022-10-09T18:21:17.001Z,67.56
2022-10-09T18:23:50.501Z,66.90
2022-10-09T18:26:19.455Z,66.87
2022-10-09T18:28:48.611Z,67.39
2022-10-09T18:31:20.002Z,66.45
2022-10-09T18:33:48.203Z,66.81
2022-10-09T18:36:19.774Z,66.32
2022-10-09T18:38:49.896Z,66.23
2022-10-09T18:41:18.619Z,66.26
2022-10-09T18:43:46.542Z,66.94
2022-10-09T18:46:16.199Z,67.52
2022-10-09T18:48:44.600Z,67.16
2022-10-09T18:51:16.411Z,67.19
2022-10-09T18:53:47.206Z,67.07
2022-10-09T18:56:16.922Z,67.42
2022-10-09T18:58:44.596Z,67.51
2022-10-09T19:01:12.649Z,67.50
2022-10-09T19:03:45.901Z,67.31
2022-10-09T19:06:17.483Z,67.26
2022-10-09T19:08:44.958Z,67.32
2022-10-09T19:11:15.518Z,67.30
2022-10-09T19:13:43.929Z,67.33
2022-10-09T19:16:11.736Z,67.52
2022-10-09T19:18:39.784Z,67.24
2022-10-09T19:21:11.626Z,67.28
2022-10-09T19:23:39.126Z,67.71
2022-10-09T19:26:06.584Z,67.54
2022-10-09T19:28:38.778Z,67.42
2022-10-09T19:31:08.758Z,67.48
2022-10-09T19:33:38.693Z,68.04
2022-10-09T19:36:06.789Z,67.10
2022-10-09T19:38:35.133Z,67.36
2022-10-09T19:41:08.002Z,67.40
2022-10-09T19:43:37.532Z,67.50
2022-10-09T19:46:10.594Z,67.71
2022-10-09T19:48:38.388Z,67.77
2022-10-09T19:51:13.247Z,67.72
2022-10-09T19:53:40.889Z,67.92
2022-10-09T19:56:13.405Z,68.70
2022-10-09T19:58:45.643Z,68.17
2022-10-09T20:01:15.992Z,68.99
2022-10-09T20:03:44.195Z,69.36
2022-10-09T20:06:12.015Z,69.17
2022-10-09T20:08:41.613Z,69.62
2022-10-09T20:11:12.646Z,69.29
2022-10-09T20:13:42.037Z,69.62
2022-10-09T20:16:12.925Z,69.04
2022-10-09T20:18:44.730Z,68.18
2022-10-09T20:21:13.973Z,67.53
2022-10-09T20:23:41.843Z,66.79
2022-10-09T20:26:13.104Z,65.78
2022-10-09T20:28:40.958Z,65.05
2022-10-09T20:31:10.831Z,64.59
2022-10-09T20:33:38.970Z,63.98
2022-10-09T20:36:07.002Z,62.26
2022-10-09T20:38:35.279Z,62.05
2022-10-09T20:41:07.809Z,62.17
2022-10-09T20:43:36.581Z,61.75
2022-10-09T20:46:08.623Z,61.35
2022-10-09T20:48:36.315Z,61.22
2022-10-09T20:51:04.038Z,61.28
2022-10-09T20:53:31.779Z,61.39
2022-10-09T20:56:06.802Z,61.48
2022-10-09T20:58:34.930Z,61.22
2022-10-09T21:01:10.389Z,61.18
2022-10-09T21:03:40.304Z,60.76
2022-10-09T21:06:10.467Z,60.41
2022-10-09T21:08:38.717Z,60.67
2022-10-09T21:11:08.327Z,60.37
2022-10-09T21:13:36.608Z,60.77
2022-10-09T21:16:12.419Z,61.02
2022-10-09T21:18:40.368Z,60.11
2022-10-09T21:21:13.305Z,60.26
2022-10-09T21:23:45.167Z,60.89
2022-10-09T21:26:15.516Z,60.45
2022-10-09T21:28:43.900Z,60.20
2022-10-09T21:31:23.434Z,60.44
2022-10-09T21:33:53.752Z,60.24
2022-10-09T21:36:32.953Z,60.17
2022-10-09T21:39:00.348Z,59.94
2022-10-09T21:41:27.852Z,60.24
2022-10-09T21:43:55.308Z,60.45
2022-10-09T21:46:22.918Z,60.17
2022-10-09T21:48:50.531Z,60.09
2022-10-09T21:51:18.184Z,60.00
2022-10-09T21:53:45.715Z,60.31
2022-10-09T21:56:13.479Z,60.08
2022-10-09T21:58:45.442Z,59.65
2022-10-09T22:01:16.055Z,59.62
2022-10-09T22:03:43.485Z,59.68
2022-10-09T22:06:18.704Z,59.74
2022-10-09T22:08:48.042Z,59.96
2022-10-09T22:11:16.645Z,60.23
2022-10-09T22:13:43.981Z,60.09
2022-10-09T22:16:14.261Z,59.94
2022-10-09T22:18:42.328Z,59.73
2022-10-09T22:21:17.418Z,59.69
2022-10-09T22:23:44.942Z,60.04
2022-10-09T22:26:16.992Z,59.71
2022-10-09T22:28:44.996Z,59.58
2022-10-09T22:31:18.103Z,59.42
2022-10-09T22:33:51.201Z,59.28
2022-10-09T22:36:20.987Z,58.68
2022-10-09T22:38:48.398Z,58.65
2022-10-09T22:41:20.803Z,58.70
2022-10-09T22:43:50.243Z,58.61
2022-10-09T22:46:21.728Z,58.44
2022-10-09T22:48:49.907Z,58.06
2022-10-09T22:51:18.784Z,57.94
2022-10-09T22:53:47.373Z,58.62
2022-10-09T22:56:18.103Z,58.26
2022-10-09T22:58:46.672Z,58.80
2022-10-09T23:01:18.150Z,58.45
2022-10-09T23:03:45.495Z,58.44
2022-10-09T23:06:19.053Z,58.02
2022-10-09T23:08:47.671Z,58.70
2022-10-09T23:11:16.620Z,57.68
2022-10-09T23:13:44.952Z,57.49
2022-10-09T23:16:14.501Z,58.04
2022-10-09T23:18:42.998Z,57.64
2022-10-09T23:21:13.862Z,58.69
2022-10-09T23:23:41.993Z,58.54
2022-10-09T23:26:12.343Z,57.86
2022-10-09T23:28:40.802Z,57.85
2022-10-09T23:31:09.748Z,57.12
2022-10-09T23:33:42.052Z,57.33
2022-10-09T23:36:11.951Z,56.85
2022-10-09T23:38:39.570Z,56.33
2022-10-09T23:41:12.536Z,56.56
2022-10-09T23:43:41.621Z,56.43
2022-10-09T23:46:13.447Z,56.47
2022-10-09T23:48:41.789Z,56.38
2022-10-09T23:51:10.072Z,56.33
2022-10-09T23:53:38.001Z,56.25
2022-10-09T23:56:14.548Z,56.44
2022-10-09T23:58:41.843Z,56.38
